METAR Data
IDs: Format: Raw Decoded Include TAF

Data at: 2128 UTC 18 Sep 2018

KELP 182051Z COR 12004KT 10SM FEW075 33/13 A2995 RMK AO2 SLP063 CB DSNT N AND E-SW TCU DSNT NE SHRA DSNT E T03280133 58028
KELP 181951Z VRB04KT 10SM FEW075 31/13 A2998 RMK AO2 SLP076 CB DSNT SE TCU DSNT E-SW T03060133
KELP 181851Z 02004KT 10SM FEW070 31/14 A3002 RMK AO2 SLP087 CB DSNT E AND SE T03060144
KELP 181751Z VRB03KT 10SM FEW060 FEW250 28/16 A3004 RMK AO2 SLP097 TCU DSNT SE T02830156 10289 20206 58010
KELP 181651Z 00000KT 10SM FEW045 FEW160 27/16 A3007 RMK AO2 SLP108 T02720161
KELP 181551Z 00000KT 10SM FEW033 FEW150 25/17 A3008 RMK AO2 SLP113 T02500167
KELP 181451Z 15005KT 10SM FEW031 FEW150 23/17 A3008 RMK AO2 SLP113 OCNL CLDS TPG MTNS NW T02330167 51006
KELP 181351Z COR 00000KT 10SM FEW012 FEW020 SCT150 22/16 A3007 RMK AO2 SLP108 CLDS TPG MTNS W-NW T02220161
KELP 181251Z 00000KT 10SM FEW020 FEW150 21/16 A3006 RMK AO2 SLP105 CLDS TPG MTNS W-NW T02110161
KELP 181151Z 12003KT 10SM FEW020 22/16 A3005 RMK AO2 SLP101 CLDS TPG MTNS W-NW T02170161 10244 20211 53002
KELP 181051Z 00000KT 10SM CLR 22/16 A3004 RMK AO2 SLP094 T02170161
KELP 180951Z 00000KT 10SM CLR 22/17 A3004 RMK AO2 SLP094 T02170167
KELP 180851Z 15005KT 10SM CLR 22/17 A3005 RMK AO2 SLP098 T02220167 56005
KELP 180751Z 16008KT 10SM CLR 23/17 A3005 RMK AO2 SLP100 T02280167
KELP 180651Z 15008KT 10SM CLR 24/17 A3006 RMK AO2 SLP103 T02390167 403390217
KELP 180551Z 13008KT 10SM FEW250 24/16 A3006 RMK AO2 SLP105 T02440156 10328 20244 51016
KELP 180451Z 16009KT 10SM FEW250 25/16 A3006 RMK AO2 SLP105 T02500156
KELP 180351Z 14008KT 10SM FEW220 26/16 A3004 RMK AO2 SLP101 T02560156
KELP 180251Z 14011G22KT 10SM FEW100 FEW220 27/16 A3001 RMK AO2 SLP090 T02670156 53017
KELP 180151Z 12008KT 10SM FEW090 FEW220 31/09 A2997 RMK AO2 SLP073 T03060094
KELP 180051Z 11012KT 10SM FEW090 FEW180 SCT220 32/08 A2996 RMK AO2 SLP068 CB DSNT S TCU DSNT E T03170083
KELP 172351Z 10009KT 10SM FEW090 FEW180 33/08 A2996 RMK AO2 SLP066 CB DSNT N AND S TCU DSNT E T03280083 10339 20283 56012
KELP 172251Z 12009G16KT 10SM FEW090 FEW180 33/08 A2996 RMK AO2 SLP066 CB DSNT N AND SE-S T03330083
KELP 172151Z VRB06KT 10SM FEW085 FEW180 33/09 A2997 RMK AO2 SLP071 CB DSNT SE-S TCU DSNT N T03330089
KELP 172051Z 06007KT 010V120 10SM FEW080 FEW180 33/10 A3000 RMK AO2 SLP077 CB DSNT SE T03330100 58026
KELP 171951Z 09008KT 10SM FEW080 SCT180 32/11 A3002 RMK AO2 SLP089 T03170106
KELP 171851Z VRB04KT 10SM FEW070 FEW170 29/13 A3005 RMK AO2 SLP100 T02940128
KELP 171751Z VRB03KT 10SM FEW065 SCT160 28/13 A3008 RMK AO2 SLP111 T02830133 10283 20217 58003
KELP 171651Z 14006KT 10SM FEW055 FEW140 27/14 A3010 RMK AO2 SLP118 T02670139
KELP 171551Z 13006KT 10SM FEW050 FEW140 25/14 A3010 RMK AO2 SLP119 T02500144
KELP 171451Z 11005KT 10SM FEW150 24/14 A3009 RMK AO2 SLP116 T02390144 51014
KELP 171351Z 06003KT 10SM FEW140 23/14 A3008 RMK AO2 SLP112 T02280144
KELP 171251Z 00000KT 10SM FEW140 22/14 A3006 RMK AO2 SLP107 T02170139
KELP 171151Z 00000KT 10SM FEW140 22/14 A3005 RMK AO2 SLP098 T02220139 10250 20217 55001
KELP 171051Z 00000KT 10SM FEW090 FEW150 22/14 A3004 RMK AO2 SLP096 T02220139
KELP 170951Z 08003KT 10SM FEW090 SCT150 22/13 A3005 RMK AO2 SLP098 T02220133